< < Back
Terminal Aerodrome Forecast


Current Version              Previous Versions:   1  2  3  4  5  6  7  8  9  

Terminal Aerodrome Forecast

045
FTUS42 KJAX 021100
TAFJAX
TAF
KJAX 021120Z 0212/0312 00000KT P6SM SCT250
     FM021600 25003KT P6SM SCT035 SCT250
     FM021800 11008KT P6SM VCTS SCT035CB BKN250
     FM022200 12008KT P6SM FEW040 SCT250
     FM030100 15003KT P6SM BKN250=



Latest METAR

458
SAUS80 KWBC 021700
MTRJAX
METAR KJAX 021656Z 30006KT 10SM SCT038TCU SCT250 32/23 A3007 RMK AO2
SLP184 TCU NE T03220228


USA.gov is the U.S. government's official web portal to all federal, state and local government web resources and services.